Time;durP1;ratioP1;P1;durP2;ratioP2;P2;SDS_P1;SDS_P2;PMS_P1;PMS_P2;Temp;Humidity;BMP_temperature;BMP_pressure;BME280_temperature;BME280_humidity;BME280_pressure;Samples;Min_cycle;Max_cycle;Signal;HPM_P1;HPM_P2
2021/10/29 00:02:30;;;;;;;;;67.75;51.00;;;;;12.99;48.94;99318.44;6198501;28;97038;-65
2021/10/29 00:05:35;;;;;;;;;67.40;51.00;;;;;12.97;48.66;99320.53;6190130;28;97718;-67
2021/10/29 00:08:39;;;;;;;;;66.00;51.00;;;;;12.93;48.84;99325.56;6199741;28;97063;-67
2021/10/29 00:11:43;;;;;;;;;67.00;52.00;;;;;12.92;48.95;99312.25;6200136;28;96791;-67
2021/10/29 00:14:47;;;;;;;;;65.75;51.00;;;;;12.87;48.29;99315.66;6191681;28;96551;-65
2021/10/29 00:17:51;;;;;;;;;65.75;51.25;;;;;12.90;49.36;99319.78;6180248;28;98763;-65
2021/10/29 00:20:54;;;;;;;;;67.00;51.00;;;;;12.87;48.70;99318.34;6168227;28;96918;-64
2021/10/29 00:23:59;;;;;;;;;64.75;51.00;;;;;12.78;48.28;99316.16;6192236;28;96794;-65
2021/10/29 00:27:03;;;;;;;;;66.60;51.40;;;;;12.71;49.17;99321.66;6184131;28;96776;-66
2021/10/29 00:30:07;;;;;;;;;66.80;51.40;;;;;12.63;48.95;99321.13;6174084;28;98436;-65
2021/10/29 00:33:11;;;;;;;;;65.00;50.50;;;;;12.57;49.11;99318.25;6152525;28;98054;-67
2021/10/29 00:36:14;;;;;;;;;64.00;52.00;;;;;12.55;48.83;99311.44;6194731;28;97357;-68
2021/10/29 00:39:20;;;;;;;;;65.60;51.40;;;;;12.55;48.65;99311.44;6182980;28;97468;-65
2021/10/29 00:42:23;;;;;;;;;68.00;51.60;;;;;12.53;48.53;99308.94;6152085;28;97127;-65
2021/10/29 00:45:31;;;;;;;;;65.60;50.60;;;;;12.50;48.81;99305.88;6182977;28;97021;-67
2021/10/29 00:48:34;;;;;;;;;64.60;50.00;;;;;12.38;49.33;99311.19;6179601;28;96652;-66
2021/10/29 00:51:38;;;;;;;;;66.60;50.00;;;;;12.34;48.68;99304.56;6186008;28;97325;-65
2021/10/29 00:54:43;;;;;;;;;67.60;51.00;;;;;12.32;49.03;99303.13;6179902;28;96684;-67
2021/10/29 04:35:45;;;;;;;;;69.00;52.00;;;;;10.31;50.12;99206.81;6407176;22;96803;-67
2021/10/29 04:38:49;;;;;;;;;65.60;50.00;;;;;10.22;49.38;99197.28;6155982;28;97308;-66
2021/10/29 04:41:53;;;;;;;;;65.00;51.00;;;;;10.25;48.88;99203.09;6147073;28;97562;-68
2021/10/29 04:44:56;;;;;;;;;64.75;50.00;;;;;10.22;49.57;99195.41;6140046;28;97501;-66
2021/10/29 04:48:01;;;;;;;;;65.33;51.00;;;;;10.21;48.95;99201.03;6136368;28;98470;-68
2021/10/29 04:51:06;;;;;;;;;63.00;50.40;;;;;10.20;49.28;99208.28;6152271;28;97471;-67
2021/10/29 04:54:09;;;;;;;;;66.50;51.75;;;;;10.21;49.67;99198.34;6154932;28;97462;-67
2021/10/29 04:57:12;;;;;;;;;62.80;50.00;;;;;10.22;49.35;99200.81;6152332;28;96641;-69
2021/10/29 05:00:16;;;;;;;;;65.75;50.50;;;;;10.22;48.80;99189.19;6133482;28;97414;-69
2021/10/29 05:03:20;;;;;;;;;64.40;51.00;;;;;10.20;49.25;99189.44;6159668;28;97534;-68
2021/10/29 05:06:24;;;;;;;;;66.20;50.80;;;;;10.19;50.39;99192.31;6156320;28;98206;-67
2021/10/29 05:09:28;;;;;;;;;65.00;51.00;;;;;10.25;49.41;99188.78;6160138;28;98302;-69
2021/10/29 05:12:31;;;;;;;;;65.60;50.00;;;;;10.27;50.18;99194.78;6158846;28;97492;-67
2021/10/29 05:15:35;;;;;;;;;65.00;51.00;;;;;10.25;49.35;99194.19;6143079;28;99711;-69
2021/10/29 05:18:38;;;;;;;;;67.00;51.00;;;;;10.20;48.95;99192.13;6145115;28;97096;-68
2021/10/29 05:21:43;;;;;;;;;64.20;50.00;;;;;10.22;49.43;99181.09;6142475;28;98464;-68
2021/10/29 05:24:46;;;;;;;;;65.60;50.00;;;;;10.23;49.50;99188.16;6164140;28;97694;-69
2021/10/29 05:27:50;;;;;;;;;62.50;50.00;;;;;10.15;48.91;99189.19;6163134;28;96607;-68
2021/10/29 05:30:53;;;;;;;;;63.75;50.00;;;;;10.12;49.22;99191.47;6155095;28;98251;-67
2021/10/29 05:33:57;;;;;;;;;66.00;50.00;;;;;10.05;49.07;99193.38;6140102;28;96721;-68
2021/10/29 05:37:01;;;;;;;;;65.00;50.50;;;;;10.05;49.64;99191.50;6140189;28;97057;-67
2021/10/29 05:40:07;;;;;;;;;64.40;49.80;;;;;10.11;49.16;99187.16;6112070;28;98453;-68
2021/10/29 05:43:10;;;;;;;;;66.80;51.00;;;;;10.20;50.22;99197.50;6137718;28;96572;-67
2021/10/29 05:46:13;;;;;;;;;63.00;50.00;;;;;10.25;49.03;99195.00;6110492;28;98442;-69
2021/10/29 05:49:18;;;;;;;;;65.60;50.00;;;;;10.35;48.28;99190.00;6138899;28;97507;-68
2021/10/29 05:52:24;;;;;;;;;65.40;50.00;;;;;10.53;48.12;99200.09;6128436;28;97621;-67
2021/10/29 05:55:30;;;;;;;;;66.00;50.00;;;;;10.75;47.68;99201.41;6130951;28;97533;-67
2021/10/29 05:58:34;;;;;;;;;64.00;50.00;;;;;11.01;47.44;99197.75;6137133;28;97927;-67
2021/10/29 06:01:41;;;;;;;;;66.00;51.00;;;;;11.38;47.27;99200.63;6133048;28;97044;-69
2021/10/29 06:04:44;;;;;;;;;65.40;51.20;;;;;11.86;46.12;99199.00;6139953;28;96530;-68
2021/10/29 06:07:51;;;;;;;;;66.60;51.00;;;;;12.68;44.95;99200.38;6139632;28;96728;-67
2021/10/29 06:10:54;;;;;;;;;66.00;51.00;;;;;13.86;42.46;99198.63;6140295;28;97406;-67
2021/10/29 06:13:58;;;;;;;;;65.75;51.00;;;;;15.25;39.59;99202.06;6139966;28;97887;-67
2021/10/29 06:17:03;;;;;;;;;66.00;51.00;;;;;16.60;37.18;99198.22;6139162;28;96578;-68
2021/10/29 06:20:08;;;;;;;;;65.25;50.25;;;;;17.85;34.69;99197.88;6134509;28;97522;-67
2021/10/29 06:23:13;;;;;;;;;64.80;50.00;;;;;18.96;32.97;99203.19;6113805;28;98404;-68
2021/10/29 06:26:22;;;;;;;;;62.20;48.80;;;;;19.90;31.42;99219.19;6116684;28;98492;-68
2021/10/29 06:29:26;;;;;;;;;62.60;50.00;;;;;20.79;30.20;99223.97;6139659;28;96504;-69
2021/10/29 06:32:29;;;;;;;;;65.80;49.60;;;;;21.54;29.09;99227.44;6139991;28;96627;-68
2021/10/29 06:35:33;;;;;;;;;62.00;50.00;;;;;22.17;28.15;99222.81;6139439;28;97035;-68
2021/10/29 06:38:40;;;;;;;;;61.75;48.25;;;;;23.01;27.07;99226.84;6163929;28;97570;-68
2021/10/29 06:41:43;;;;;;;;;62.40;49.40;;;;;23.71;26.29;99225.03;6161719;28;96903;-68
2021/10/29 06:44:55;;;;;;;;;64.20;50.00;;;;;24.32;25.65;99229.53;6134778;28;98426;-68
2021/10/29 06:48:15;;;;;;;;;62.60;49.40;;;;;24.80;24.78;99230.00;6145963;28;97089;-68
2021/10/29 07:01:25;;;;;;;;;63.00;49.00;;;;;27.38;22.02;99239.28;6104530;28;97630;-69
2021/10/29 07:11:54;;;;;;;;;60.40;47.60;;;;;28.98;20.69;99236.16;6139339;28;97423;-69
2021/10/29 07:41:56;;;;;;;;;62.00;48.00;;;;;32.60;17.49;99239.69;6159187;28;97507;-67
2021/10/29 07:45:01;;;;;;;;;61.00;48.00;;;;;33.04;17.17;99251.63;6160835;28;96236;-66
2021/10/29 07:48:05;;;;;;;;;61.80;48.00;;;;;33.28;16.76;99233.84;6147705;28;97482;-67
2021/10/29 07:51:08;;;;;;;;;58.00;45.60;;;;;33.63;16.05;99242.22;6141470;28;97334;-68
2021/10/29 07:54:11;;;;;;;;;58.40;46.60;;;;;33.93;16.28;99225.72;6163160;28;96627;-66
2021/10/29 07:57:17;;;;;;;;;59.40;47.00;;;;;34.00;16.29;99236.25;6162686;28;97477;-67
2021/10/29 08:00:22;;;;;;;;;61.40;49.00;;;;;34.17;15.85;99230.97;6162443;28;97090;-69
2021/10/29 08:03:26;;;;;;;;;62.33;50.00;;;;;33.80;16.62;99230.66;6128201;28;99807;-68
2021/10/29 08:06:30;;;;;;;;;62.25;50.00;;;;;33.40;16.91;99230.94;6154708;28;97430;-68
2021/10/29 08:09:33;;;;;;;;;64.60;51.00;;;;;33.61;16.91;99235.38;6145500;28;96968;-68
2021/10/29 08:12:37;;;;;;;;;64.00;50.00;;;;;33.55;16.58;99234.06;6130739;28;98394;-68
2021/10/29 08:15:43;;;;;;;;;62.00;48.60;;;;;33.70;16.94;99236.00;6131462;28;96541;-68
2021/10/29 08:18:48;;;;;;;;;60.60;48.60;;;;;33.76;16.44;99229.78;6162051;28;96965;-68
2021/10/29 08:21:53;;;;;;;;;62.20;49.60;;;;;33.69;16.74;99228.78;6151253;28;96970;-68
2021/10/29 08:24:57;;;;;;;;;63.50;50.00;;;;;33.86;16.37;99234.78;6161832;28;96668;-68
2021/10/29 08:28:01;;;;;;;;;61.00;48.00;;;;;33.35;16.43;99231.22;6144341;28;97758;-68
2021/10/29 08:31:25;;;;;;;;;58.00;47.00;;;;;33.67;16.73;99222.75;6138446;28;99223;-68
2021/10/29 08:34:28;;;;;;;;;61.40;48.00;;;;;33.74;16.51;99218.13;6136418;28;96774;-68
2021/10/29 08:37:32;;;;;;;;;58.00;45.60;;;;;33.69;16.37;99220.41;6139846;28;98468;-67
2021/10/29 08:40:35;;;;;;;;;60.00;47.00;;;;;34.14;16.39;99217.75;6156204;28;97427;-68
2021/10/29 08:43:39;;;;;;;;;58.60;46.00;;;;;34.25;15.91;99221.59;6144329;28;97344;-67
2021/10/29 08:46:45;;;;;;;;;56.00;45.00;;;;;34.60;15.71;99229.03;6165559;28;96623;-68
2021/10/29 08:49:49;;;;;;;;;56.40;46.00;;;;;35.02;15.87;99235.38;6158532;28;97537;-68
2021/10/29 08:52:53;;;;;;;;;55.25;44.25;;;;;35.38;15.28;99233.16;6160100;28;96949;-67
2021/10/29 08:56:01;;;;;;;;;54.00;45.00;;;;;35.83;14.82;99234.97;6162280;28;96662;-67
2021/10/29 08:59:08;;;;;;;;;60.00;46.40;;;;;36.09;14.91;99220.84;6143003;28;97818;-69
2021/10/29 09:02:16;;;;;;;;;56.80;46.00;;;;;36.49;14.71;99228.53;6164525;28;97492;-68
2021/10/29 09:05:25;;;;;;;;;57.60;46.00;;;;;36.83;14.11;99215.22;6160676;28;97474;-68
2021/10/29 09:08:42;;;;;;;;;56.00;45.00;;;;;37.01;14.42;99218.16;6136805;28;97635;-68
2021/10/29 09:12:04;;;;;;;;;58.20;46.80;;;;;37.24;13.98;99218.78;6153410;28;97163;-71
2021/10/29 09:32:08;;;;;;;;;56.25;45.75;;;;;36.53;14.23;99214.53;6153035;28;98066;-73
2021/10/29 09:35:16;;;;;;;;;57.20;45.00;;;;;36.70;14.07;99208.31;6136999;28;98651;-71
2021/10/29 09:38:19;;;;;;;;;58.40;46.00;;;;;36.71;14.13;99221.94;6153331;28;97129;-72
2021/10/29 09:42:03;;;;;;;;;57.00;46.00;;;;;36.69;14.23;99215.13;6119384;28;98704;-71
2021/10/29 09:45:15;;;;;;;;;56.40;44.00;;;;;36.59;14.27;99201.75;6152028;28;97794;-70
2021/10/29 09:48:21;;;;;;;;;52.75;43.50;;;;;36.89;13.96;99211.69;6156729;28;97650;-68
2021/10/29 09:51:33;;;;;;;;;54.60;43.00;;;;;36.95;13.75;99209.28;6161044;28;96613;-68
2021/10/29 09:54:45;;;;;;;;;52.00;43.60;;;;;36.89;13.64;99216.50;6156908;28;97701;-69
2021/10/29 09:57:49;;;;;;;;;55.40;43.40;;;;;36.76;14.13;99209.53;6156053;28;97651;-70
2021/10/29 10:00:52;;;;;;;;;53.60;42.60;;;;;36.86;13.90;99206.00;6144557;28;96638;-68
2021/10/29 10:04:02;;;;;;;;;50.00;40.00;;;;;36.97;13.97;99200.47;6162585;28;97245;-68
2021/10/29 10:07:06;;;;;;;;;44.60;37.60;;;;;36.94;13.66;99204.06;6145866;28;96719;-69
2021/10/29 10:10:11;;;;;;;;;41.60;35.00;;;;;36.67;13.15;99198.63;6128547;28;98072;-69
2021/10/29 10:13:17;;;;;;;;;43.00;35.00;;;;;36.42;12.95;99200.38;6138337;28;96945;-70
2021/10/29 10:16:20;;;;;;;;;38.50;33.00;;;;;36.05;13.59;99197.56;6143003;28;98869;-66
2021/10/29 10:19:24;;;;;;;;;38.40;32.00;;;;;36.21;13.60;99198.19;6158751;28;96817;-66
2021/10/29 10:22:34;;;;;;;;;35.20;31.80;;;;;36.52;12.96;99202.47;6154321;28;97414;-68
2021/10/29 10:25:45;;;;;;;;;36.00;32.00;;;;;36.73;12.85;99201.91;6158906;28;97544;-67
2021/10/29 10:42:50;;;;;;;;;33.00;29.60;;;;;36.89;13.74;99172.34;6154226;28;96663;-69
2021/10/29 10:45:58;;;;;;;;;31.00;29.60;;;;;37.07;12.71;99168.81;6160047;28;97504;-67
2021/10/29 10:49:09;;;;;;;;;32.00;30.00;;;;;37.30;13.04;99172.19;6141192;28;99467;-66
2021/10/29 10:52:16;;;;;;;;;34.00;32.00;;;;;37.25;13.37;99178.19;6158251;28;97107;-66
2021/10/29 10:55:25;;;;;;;;;33.80;31.00;;;;;37.09;13.43;99169.28;6162793;28;96966;-70
2021/10/29 10:58:41;;;;;;;;;39.40;32.40;;;;;37.02;13.88;99169.19;6144120;28;99594;-66
2021/10/29 11:05:21;;;;;;;;;40.00;34.60;;;;;37.37;13.44;99175.06;6137688;28;97167;-66
2021/10/29 11:11:56;;;;;;;;;38.60;33.00;;;;;37.67;14.05;99167.22;6156839;28;96580;-67
2021/10/29 11:15:09;;;;;;;;;42.20;35.80;;;;;37.87;13.21;99164.88;6135042;28;97518;-68
2021/10/29 11:18:28;;;;;;;;;38.00;33.00;;;;;37.81;13.89;99152.38;6151461;28;96619;-69
2021/10/29 11:21:35;;;;;;;;;39.33;35.00;;;;;37.70;13.59;99148.72;6162893;28;97852;-65
2021/10/29 11:24:40;;;;;;;;;45.00;36.00;;;;;37.60;13.72;99153.09;6143589;28;97084;-67
2021/10/29 11:27:45;;;;;;;;;42.40;35.40;;;;;37.60;14.24;99155.91;6161530;28;96751;-69
2021/10/29 11:30:48;;;;;;;;;43.00;36.00;;;;;37.46;13.72;99141.75;6161735;28;97294;-67
2021/10/29 11:33:54;;;;;;;;;43.33;36.00;;;;;37.13;14.37;99142.00;6160399;28;98025;-67
2021/10/29 11:36:58;;;;;;;;;42.75;35.75;;;;;36.96;14.32;99139.84;6158325;28;97332;-69
2021/10/29 11:40:01;;;;;;;;;44.80;36.00;;;;;36.71;14.08;99139.66;6160802;28;97447;-69
2021/10/29 11:43:06;;;;;;;;;43.20;34.80;;;;;36.55;14.49;99127.88;6160193;28;98000;-68
2021/10/29 11:46:13;;;;;;;;;41.20;34.20;;;;;36.62;14.50;99131.56;6158279;28;97193;-67
2021/10/29 11:49:21;;;;;;;;;39.00;34.00;;;;;36.65;14.86;99128.00;6141839;28;96490;-68
2021/10/29 11:52:24;;;;;;;;;39.60;34.40;;;;;36.70;14.49;99116.38;6142604;28;100238;-67
2021/10/29 11:55:39;;;;;;;;;37.25;32.00;;;;;36.62;14.48;99116.72;6158071;28;96746;-67
2021/10/29 11:58:50;;;;;;;;;37.67;32.00;;;;;36.41;14.11;99112.50;6119903;28;97237;-68
2021/10/29 12:05:43;;;;;;;;;34.20;31.00;;;;;36.17;14.46;99101.06;6154693;28;96574;-67
2021/10/29 12:08:44;;;;;;;;;38.00;32.00;;;;;35.39;15.04;99092.56;6137231;28;99168;-71
2021/10/29 12:11:58;;;;;;;;;37.00;30.80;;;;;35.12;15.50;99091.00;6154691;28;97465;-67
2021/10/29 12:15:08;;;;;;;;;34.00;31.00;;;;;34.97;15.67;99091.97;6154488;28;97499;-65
2021/10/29 12:18:14;;;;;;;;;32.00;29.00;;;;;34.55;15.38;99092.13;6119767;28;97147;-68
2021/10/29 12:21:20;;;;;;;;;30.00;29.00;;;;;34.29;15.79;99088.13;6149052;28;97148;-66
2021/10/29 12:24:24;;;;;;;;;30.40;28.80;;;;;33.95;16.36;99089.09;6144437;28;99588;-66
2021/10/29 12:27:33;;;;;;;;;29.00;27.00;;;;;33.59;16.62;99072.78;6146984;28;97520;-68
2021/10/29 12:30:42;;;;;;;;;33.00;29.60;;;;;33.40;16.98;99080.00;6119151;28;96960;-67
2021/10/29 12:34:10;;;;;;;;;31.60;30.00;;;;;33.23;17.53;99080.47;6140878;28;99215;-68
2021/10/29 13:01:27;;;;;;;;;32.20;29.00;;;;;31.83;18.42;99046.75;6163274;28;97508;-67
2021/10/29 13:04:44;;;;;;;;;32.40;29.00;;;;;31.78;18.58;99052.59;6135878;28;98565;-69
2021/10/29 13:07:47;;;;;;;;;29.40;27.40;;;;;31.73;18.26;99057.63;6149730;28;96732;-68
2021/10/29 13:10:51;;;;;;;;;30.00;28.00;;;;;31.57;18.94;99043.66;6155339;28;96771;-67
2021/10/29 13:13:57;;;;;;;;;29.00;27.60;;;;;31.40;18.86;99039.19;6151109;28;96948;-69
2021/10/29 13:17:03;;;;;;;;;31.00;27.00;;;;;31.06;18.54;99034.25;6153087;28;98170;-68
2021/10/29 13:20:26;;;;;;;;;26.20;26.00;;;;;30.70;19.95;99037.91;6160511;28;97406;-67
2021/10/29 13:37:56;;;;;;;;;25.00;24.00;;;;;29.66;21.22;99032.06;6035937;28;98140;-67
2021/10/29 13:51:13;;;;;;;;;22.00;21.00;;;;;29.18;21.72;99018.78;6141909;28;97845;-68
2021/10/29 13:54:24;;;;;;;;;22.00;20.00;;;;;29.05;21.45;99011.56;6140220;28;96502;-68
2021/10/29 13:58:00;;;;;;;;;19.00;18.00;;;;;28.98;21.53;99003.75;6160771;28;97761;-67
2021/10/29 14:31:22;;;;;;;;;19.60;17.40;;;;;26.83;23.22;98992.75;6251256;27;97536;-68
2021/10/29 14:34:29;;;;;;;;;19.00;17.00;;;;;26.54;23.59;98988.66;6250996;27;98251;-69
2021/10/29 14:37:39;;;;;;;;;18.20;17.00;;;;;26.36;23.99;98991.72;6238806;27;96706;-68
2021/10/29 14:40:47;;;;;;;;;18.00;16.00;;;;;26.19;24.50;98992.50;6248485;27;97570;-68
2021/10/29 14:43:53;;;;;;;;;19.40;17.40;;;;;26.01;24.66;98990.81;6253828;27;97373;-69
2021/10/29 14:47:05;;;;;;;;;19.00;18.00;;;;;25.84;24.94;98992.38;6240427;27;98220;-69
2021/10/29 15:07:31;;;;;;;;;19.00;16.40;;;;;23.88;27.60;98992.38;6246591;27;97691;-68
2021/10/29 15:17:30;;;;;;;;;16.80;16.60;;;;;23.13;28.64;98989.88;6220612;28;97944;-70
2021/10/29 15:30:43;;;;;;;;;21.00;19.00;;;;;22.13;30.54;98979.31;6207635;28;96641;-69
2021/10/29 15:44:12;;;;;;;;;23.00;21.25;;;;;21.46;30.95;98968.25;6183913;28;97954;-70
2021/10/29 15:47:31;;;;;;;;;25.60;22.60;;;;;21.29;31.00;98967.88;6146458;28;99047;-70
2021/10/29 15:50:36;;;;;;;;;24.00;23.00;;;;;21.13;31.36;98963.63;6179126;28;97461;-68
2021/10/29 15:53:39;;;;;;;;;23.75;23.00;;;;;20.96;31.56;98976.94;6183885;28;96853;-70
2021/10/29 15:56:46;;;;;;;;;25.00;23.00;;;;;20.80;31.99;98969.94;6168025;28;97589;-68
2021/10/29 15:59:57;;;;;;;;;25.00;23.75;;;;;20.68;31.78;98975.78;6181473;28;97639;-69
2021/10/29 16:03:08;;;;;;;;;29.40;27.00;;;;;20.59;31.87;98972.00;6160467;28;97319;-67
2021/10/29 16:19:49;;;;;;;;;26.00;23.20;;;;;20.38;31.57;98965.84;6144895;28;97598;-70
2021/10/29 16:22:55;;;;;;;;;22.60;20.60;;;;;20.37;31.60;98966.16;6224141;28;97571;-68
2021/10/29 16:26:01;;;;;;;;;27.00;26.00;;;;;20.41;31.34;98969.94;6221757;28;96989;-68
2021/10/29 16:29:06;;;;;;;;;27.00;25.00;;;;;20.43;31.38;98962.28;6219934;28;97319;-70
2021/10/29 16:32:24;;;;;;;;;36.20;30.00;;;;;20.35;31.72;98971.06;6234483;28;97157;-68
2021/10/29 16:35:28;;;;;;;;;55.00;44.00;;;;;20.19;32.25;98973.03;6229320;28;96992;-69
2021/10/29 16:38:33;;;;;;;;;98.60;84.00;;;;;20.04;32.38;98978.59;6201275;28;97469;-70
2021/10/29 16:41:36;;;;;;;;;45.40;35.40;;;;;19.95;32.52;98975.63;6223902;28;97824;-69
2021/10/29 16:44:40;;;;;;;;;115.80;94.20;;;;;19.90;32.58;98978.38;6230565;27;97134;-68
2021/10/29 16:47:45;;;;;;;;;120.40;98.40;;;;;19.85;32.66;98970.19;6226948;27;97597;-68
2021/10/29 16:50:49;;;;;;;;;76.00;60.80;;;;;19.67;32.87;98970.81;6233754;27;97760;-68
2021/10/29 16:53:53;;;;;;;;;64.00;50.00;;;;;19.56;33.02;98964.56;6214288;28;97383;-70
2021/10/29 16:56:56;;;;;;;;;63.20;48.80;;;;;19.44;33.50;98970.34;6228251;27;96850;-70
2021/10/29 17:00:11;;;;;;;;;54.20;42.00;;;;;19.31;33.43;98972.78;6228541;28;97382;-68
2021/10/29 17:03:16;;;;;;;;;70.60;57.80;;;;;19.22;33.89;98964.34;6218492;28;96980;-70
2021/10/29 17:06:19;;;;;;;;;34.00;30.00;;;;;19.19;33.99;98969.53;6232532;28;96982;-68
2021/10/29 17:09:26;;;;;;;;;28.00;25.80;;;;;19.09;33.96;98967.66;6235568;27;97161;-70
2021/10/29 17:12:29;;;;;;;;;21.00;19.00;;;;;19.03;33.47;98966.00;6235366;28;97760;-69
2021/10/29 17:15:34;;;;;;;;;28.00;26.00;;;;;18.90;34.59;98982.97;6218897;28;97861;-70
2021/10/29 17:18:39;;;;;;;;;23.00;21.00;;;;;18.83;33.75;98975.03;6233722;28;99286;-68
2021/10/29 17:21:42;;;;;;;;;29.00;28.00;;;;;18.79;34.27;98981.31;6232590;28;97610;-68
2021/10/29 17:24:46;;;;;;;;;27.60;25.60;;;;;18.73;34.36;98974.19;6226467;28;97490;-71
2021/10/29 17:27:49;;;;;;;;;25.00;22.40;;;;;18.62;34.63;98976.09;6234366;28;96827;-67
2021/10/29 17:30:53;;;;;;;;;20.00;19.00;;;;;18.50;34.78;98970.88;6231449;28;97020;-68
2021/10/29 17:33:58;;;;;;;;;34.20;30.00;;;;;18.36;35.04;98972.50;6235016;28;96449;-68
2021/10/29 17:37:01;;;;;;;;;28.20;27.20;;;;;18.31;34.59;98983.41;6235579;27;96720;-68
2021/10/29 17:40:07;;;;;;;;;49.00;38.00;;;;;18.26;34.73;98971.66;6233209;28;96887;-68
2021/10/29 17:43:11;;;;;;;;;35.00;31.00;;;;;18.23;34.49;98966.75;6228780;27;97018;-69
2021/10/29 17:46:14;;;;;;;;;41.00;35.00;;;;;18.24;34.32;98962.91;6229253;28;96672;-68
2021/10/29 17:49:20;;;;;;;;;33.00;28.80;;;;;18.27;33.81;98965.13;6226475;28;96609;-67
2021/10/29 17:52:25;;;;;;;;;53.80;41.20;;;;;18.26;34.11;98966.19;6217307;28;99099;-68
2021/10/29 17:55:32;;;;;;;;;62.25;48.00;;;;;18.26;33.73;98963.47;6230203;27;97936;-70
2021/10/29 17:58:35;;;;;;;;;53.60;41.00;;;;;18.27;32.83;98952.28;6225044;28;97423;-68
2021/10/29 18:01:39;;;;;;;;;43.60;35.60;;;;;18.31;32.16;98945.19;6210425;27;97356;-69
2021/10/29 18:04:44;;;;;;;;;43.80;35.00;;;;;18.26;33.05;98958.00;6234806;27;96875;-69
2021/10/29 18:07:47;;;;;;;;;21.00;19.00;;;;;18.12;33.38;98964.00;6231726;27;98055;-68
2021/10/29 18:10:51;;;;;;;;;27.00;26.00;;;;;17.95;33.99;98965.28;6230083;27;97412;-69
2021/10/29 18:13:54;;;;;;;;;24.00;23.40;;;;;17.70;35.81;98955.91;6223535;28;97645;-70
2021/10/29 18:16:58;;;;;;;;;40.40;34.00;;;;;17.50;36.93;98960.41;6225004;28;97434;-67
2021/10/29 18:20:03;;;;;;;;;31.60;29.00;;;;;17.26;38.01;98965.44;6227713;27;96714;-67
2021/10/29 18:23:06;;;;;;;;;30.40;27.40;;;;;17.05;37.68;98964.53;6234751;28;97543;-68
2021/10/29 18:26:10;;;;;;;;;27.00;26.00;;;;;16.79;38.38;98971.66;6220936;28;96625;-71
2021/10/29 18:29:14;;;;;;;;;29.50;27.75;;;;;16.70;37.84;98972.41;6219965;27;96760;-68
2021/10/29 18:32:17;;;;;;;;;26.50;26.00;;;;;16.67;36.54;98967.47;6223079;28;97596;-70
2021/10/29 18:35:22;;;;;;;;;27.00;25.50;;;;;16.64;36.12;98962.53;6227602;28;96727;-70
2021/10/29 18:38:26;;;;;;;;;25.00;22.00;;;;;16.63;35.69;98969.06;6228903;27;96961;-69
2021/10/29 18:41:31;;;;;;;;;26.40;23.00;;;;;16.52;36.47;98970.03;6233766;28;97072;-67
2021/10/29 18:44:35;;;;;;;;;26.00;24.60;;;;;16.44;36.55;98965.88;6232737;27;97425;-68
2021/10/29 18:47:39;;;;;;;;;28.00;23.00;;;;;16.42;36.75;98966.13;6233376;28;96457;-70
2021/10/29 18:50:43;;;;;;;;;25.50;23.50;;;;;16.24;37.22;98957.50;6227203;28;97411;-69
2021/10/29 18:53:47;;;;;;;;;28.60;25.60;;;;;16.25;37.27;98972.75;6226288;28;96650;-68
2021/10/29 18:56:50;;;;;;;;;27.50;23.50;;;;;16.11;37.85;98976.94;6213495;28;98554;-67
2021/10/29 18:59:53;;;;;;;;;30.40;26.40;;;;;15.98;38.16;98975.44;6228057;27;98498;-71
2021/10/29 19:02:57;;;;;;;;;29.50;27.00;;;;;15.87;38.47;98979.13;6222152;28;97494;-70
2021/10/29 19:06:02;;;;;;;;;27.00;24.80;;;;;15.73;38.97;98980.59;6228261;28;97807;-69
2021/10/29 19:09:06;;;;;;;;;31.00;28.00;;;;;15.67;39.33;98987.03;6222591;28;97101;-69
2021/10/29 19:12:10;;;;;;;;;37.00;32.00;;;;;15.62;39.59;98976.91;6231774;28;96563;-70
2021/10/29 19:15:15;;;;;;;;;34.20;32.00;;;;;15.62;39.88;98982.34;6231792;28;97721;-70
2021/10/29 19:18:19;;;;;;;;;41.80;34.80;;;;;15.62;40.01;98984.22;6229546;28;96560;-67
2021/10/29 19:21:24;;;;;;;;;32.20;27.20;;;;;15.49;40.23;98979.97;6215796;28;97769;-69
2021/10/29 19:24:27;;;;;;;;;30.00;26.00;;;;;15.37;40.39;98988.22;6229099;28;97514;-68
2021/10/29 19:27:30;;;;;;;;;31.00;28.20;;;;;15.35;40.64;98990.34;6215599;28;96555;-70
2021/10/29 19:30:34;;;;;;;;;34.00;29.40;;;;;15.29;40.87;98988.66;6223874;28;97174;-69
2021/10/29 19:33:37;;;;;;;;;33.40;30.40;;;;;15.31;41.56;98991.09;6216456;28;96709;-68
2021/10/29 19:36:47;;;;;;;;;33.00;29.40;;;;;15.23;42.13;98997.78;6227124;28;96682;-67
2021/10/29 19:39:54;;;;;;;;;36.00;32.00;;;;;15.06;42.51;99005.94;6232363;28;97220;-69
2021/10/29 19:42:58;;;;;;;;;37.20;31.60;;;;;14.85;43.29;98992.31;6237280;28;97289;-68
2021/10/29 19:46:03;;;;;;;;;42.00;35.00;;;;;14.77;43.71;98995.41;6235809;28;96778;-68
2021/10/29 19:49:08;;;;;;;;;45.50;37.00;;;;;14.65;43.51;98993.63;6232901;27;96720;-70
2021/10/29 19:52:13;;;;;;;;;39.75;35.00;;;;;14.64;43.08;98996.56;6220527;28;96770;-70
2021/10/29 19:55:18;;;;;;;;;46.00;37.00;;;;;14.59;43.38;99007.34;6217122;28;97008;-71
2021/10/29 19:58:22;;;;;;;;;45.00;36.00;;;;;14.50;43.76;99004.19;6220825;28;98509;-67
2021/10/29 20:01:26;;;;;;;;;44.80;36.00;;;;;14.48;43.57;98997.34;6222093;27;98360;-68
2021/10/29 20:04:30;;;;;;;;;44.40;35.40;;;;;14.47;43.64;99003.84;6234609;28;97085;-67
2021/10/29 20:07:36;;;;;;;;;39.75;34.75;;;;;14.50;44.60;99003.38;6218681;28;96693;-67
2021/10/29 20:10:39;;;;;;;;;42.80;35.00;;;;;14.52;43.74;99002.03;6218038;28;97066;-67
2021/10/29 20:13:43;;;;;;;;;46.00;38.00;;;;;14.45;43.61;99001.41;6229518;28;97447;-68
2021/10/29 20:16:48;;;;;;;;;65.67;51.00;;;;;14.42;43.82;98998.31;6224158;27;97417;-70
2021/10/29 20:19:52;;;;;;;;;60.80;46.00;;;;;14.36;44.07;99002.88;6214801;28;97514;-70
2021/10/29 20:22:57;;;;;;;;;50.00;40.00;;;;;14.39;44.26;98998.81;6214569;28;98186;-70
2021/10/29 20:26:01;;;;;;;;;34.80;31.00;;;;;14.45;43.94;98998.69;6218962;28;96999;-70
2021/10/29 20:29:05;;;;;;;;;38.40;33.00;;;;;14.53;44.00;98994.72;6225202;28;97358;-68
2021/10/29 20:32:09;;;;;;;;;44.33;34.33;;;;;14.58;43.47;98989.41;6206627;28;97564;-69
2021/10/29 20:35:13;;;;;;;;;37.00;32.00;;;;;14.61;43.38;98999.78;6205227;28;99408;-70
2021/10/29 20:38:18;;;;;;;;;47.00;36.75;;;;;14.40;43.18;98971.47;6226296;28;96837;-69
2021/10/29 20:41:21;;;;;;;;;41.40;34.80;;;;;14.46;44.02;98996.78;6230899;28;97027;-69
2021/10/29 20:44:25;;;;;;;;;41.50;34.25;;;;;14.42;43.82;99003.75;6219719;28;98665;-68
2021/10/29 20:47:28;;;;;;;;;43.00;34.60;;;;;14.33;43.88;99003.28;6227685;28;100330;-70
2021/10/29 20:50:33;;;;;;;;;41.50;35.00;;;;;14.28;44.18;98998.59;6233893;28;96613;-69
2021/10/29 20:53:39;;;;;;;;;40.00;34.00;;;;;14.21;44.10;98991.69;6226757;27;97248;-67
2021/10/29 20:56:42;;;;;;;;;44.50;37.00;;;;;14.05;44.12;98989.75;6228266;27;97857;-67
2021/10/29 20:59:46;;;;;;;;;45.80;37.00;;;;;14.05;44.48;99003.31;6219134;28;96790;-70
2021/10/29 21:02:49;;;;;;;;;43.20;35.20;;;;;13.98;45.13;99003.44;6210607;28;98556;-67
2021/10/29 21:05:52;;;;;;;;;44.80;36.00;;;;;13.81;44.91;98989.84;6231424;27;97390;-69
2021/10/29 21:08:58;;;;;;;;;46.25;38.00;;;;;13.88;45.07;99006.75;6233951;28;97567;-69
2021/10/29 21:12:04;;;;;;;;;54.00;44.00;;;;;13.88;45.42;99014.88;6224440;28;97987;-69
2021/10/29 21:15:08;;;;;;;;;52.60;42.00;;;;;13.92;45.40;99006.31;6227728;27;97488;-67
2021/10/29 21:18:11;;;;;;;;;48.00;38.50;;;;;13.96;45.66;99007.47;6220706;28;97600;-67
2021/10/29 21:21:15;;;;;;;;;45.40;36.00;;;;;13.98;45.17;99010.72;6213043;28;100059;-67
2021/10/29 21:24:20;;;;;;;;;45.00;36.00;;;;;13.87;45.61;99013.25;6218173;28;97578;-67
2021/10/29 21:27:23;;;;;;;;;42.00;35.40;;;;;13.75;45.30;99020.59;6206696;28;97359;-67
2021/10/29 21:30:26;;;;;;;;;41.75;34.50;;;;;13.69;45.51;99024.25;6230320;27;97429;-68
2021/10/29 21:33:30;;;;;;;;;44.80;35.80;;;;;13.68;45.61;99019.88;6224201;28;97535;-69
2021/10/29 21:36:33;;;;;;;;;41.20;34.60;;;;;13.64;45.39;99015.19;6233466;28;97225;-69